Time;durP1;ratioP1;P1;durP2;ratioP2;P2;SDS_P1;SDS_P2;PMS_P1;PMS_P2;Temp;Humidity;BMP_temperature;BMP_pressure;BME280_temperature;BME280_humidity;BME280_pressure;Samples;Min_cycle;Max_cycle;Signal;HPM_P1;HPM_P2
2022/02/18 00:00:54;;;;;;;136.90;58.85;;;;;;;;;;5064912;28;20226;-88
2022/02/18 00:03:21;;;;;;;132.90;57.40;;;;;;;;;;5065099;28;20264;-88
2022/02/18 00:05:48;;;;;;;140.65;59.83;;;;;;;;;;5063923;28;20226;-88
2022/02/18 00:08:15;;;;;;;140.98;59.58;;;;;;;;;;5063498;28;20799;-89
2022/02/18 00:10:42;;;;;;;142.80;58.80;;;;;;;;;;5063724;28;20204;-89
2022/02/18 00:13:09;;;;;;;154.50;59.45;;;;;;;;;;5064207;28;20704;-89
2022/02/18 00:15:36;;;;;;;147.07;60.58;;;;;;;;;;5064138;28;20257;-89
2022/02/18 00:18:02;;;;;;;151.45;61.55;;;;;;;;;;5064251;28;20200;-89
2022/02/18 00:20:29;;;;;;;170.57;66.90;;;;;;;;;;5063841;28;20222;-88
2022/02/18 00:22:56;;;;;;;165.15;62.97;;;;;;;;;;5063469;28;20308;-88
2022/02/18 00:25:22;;;;;;;193.25;65.85;;;;;;;;;;5064329;28;20199;-88
2022/02/18 00:27:50;;;;;;;243.32;68.40;;;;;;;;;;5064465;28;20204;-88
2022/02/18 00:30:16;;;;;;;247.55;68.93;;;;;;;;;;5082979;28;20226;-88
2022/02/18 00:32:43;;;;;;;260.23;69.97;;;;;;;;;;5083314;28;20199;-88
2022/02/18 00:35:09;;;;;;;306.00;70.72;;;;;;;;;;5083747;28;20200;-88
2022/02/18 00:37:35;;;;;;;;;;;;;;;;;;5084625;28;20280;-88
2022/02/18 00:40:02;;;;;;;;;;;;;;;;;;5084988;28;20300;-88
2022/02/18 00:42:28;;;;;;;;;;;;;;;;;;5084676;28;20134;-89
2022/02/18 00:44:54;;;;;;;;;;;;;;;;;;5084382;28;19959;-88
2022/02/18 00:47:20;;;;;;;;;;;;;;;;;;5084074;28;19924;-88
2022/02/18 00:49:47;;;;;;;;;;;;;;;;;;5084115;28;19925;-89
2022/02/18 00:52:15;;;;;;;;;;;;;;;;;;5084415;28;20378;-88
2022/02/18 00:54:41;;;;;;;;;;;;;;;;;;5084123;28;21071;-89
2022/02/18 00:57:07;;;;;;;;;;;;;;;;;;5083666;28;20401;-89
2022/02/18 00:59:33;;;;;;;;;;;;;;;;;;5083698;28;20348;-88
2022/02/18 01:02:00;;;;;;;;;;;;;;;;;;5084574;28;20355;-88
2022/02/18 01:04:26;;;;;;;;;;;;;;;;;;5083513;28;19947;-89
2022/02/18 01:06:52;;;;;;;;;;;;;;;;;;5081940;28;19920;-88
2022/02/18 01:09:18;;;;;;;;;;;;;;;;;;5082228;28;19947;-89
2022/02/18 01:11:44;;;;;;;;;;;;;;;;;;5084313;28;19955;-88
2022/02/18 01:14:11;;;;;;;;;;;;;;;;;;5083918;28;19924;-88
2022/02/18 01:16:37;;;;;;;;;;;;;;;;;;5082886;28;19921;-88
2022/02/18 01:19:03;;;;;;;;;;;;;;;;;;5082975;28;19920;-89
2022/02/18 01:21:29;;;;;;;;;;;;;;;;;;5083811;28;20011;-89
2022/02/18 01:23:56;;;;;;;;;;;;;;;;;;5083839;28;19924;-88
2022/02/18 01:26:22;;;;;;;;;;;;;;;;;;5083397;28;19924;-89
2022/02/18 01:28:48;;;;;;;;;;;;;;;;;;5082428;28;19947;-89
2022/02/18 01:31:15;;;;;;;;;;;;;;;;;;5083220;28;20281;-89
2022/02/18 01:33:41;;;;;;;;;;;;;;;;;;5083264;28;20383;-89
2022/02/18 01:36:07;;;;;;;;;;;;;;;;;;5083470;28;20428;-89
2022/02/18 01:38:33;;;;;;;;;;;;;;;;;;5083605;28;20383;-89
2022/02/18 01:40:59;;;;;;;;;;;;;;;;;;5078204;28;20354;-90
2022/02/18 01:43:26;;;;;;;;;;;;;;;;;;5063888;28;20182;-90
2022/02/18 01:45:52;;;;;;;;;;;;;;;;;;5082991;28;20268;-89
2022/02/18 01:48:18;;;;;;;;;;;;;;;;;;5083182;28;20409;-89
2022/02/18 01:50:44;;;;;;;;;;;;;;;;;;5083297;28;20368;-89
2022/02/18 01:53:12;;;;;;;;;;;;;;;;;;5083438;28;20400;-89
2022/02/18 01:55:38;;;;;;;;;;;;;;;;;;5083011;28;19929;-89
2022/02/18 01:58:04;;;;;;;;;;;;;;;;;;5083114;28;19924;-91
2022/02/18 02:00:30;;;;;;;;;;;;;;;;;;5081362;28;20284;-89
2022/02/18 02:02:56;;;;;;;;;;;;;;;;;;5081459;28;20347;-88
2022/02/18 02:05:23;;;;;;;;;;;;;;;;;;5082448;28;20130;-88
2022/02/18 02:07:49;;;;;;;;;;;;;;;;;;5083064;28;19920;-88
2022/02/18 02:10:15;;;;;;;;;;;;;;;;;;5082708;28;19929;-88
2022/02/18 02:12:42;;;;;;;;;;;;;;;;;;5083014;28;19924;-88
2022/02/18 02:15:08;;;;;;;;;;;;;;;;;;5082418;28;19921;-88
2022/02/18 02:17:34;;;;;;;;;;;;;;;;;;5082911;28;19978;-88
2022/02/18 02:20:00;;;;;;;;;;;;;;;;;;5082167;28;19924;-88
2022/02/18 02:22:27;;;;;;;;;;;;;;;;;;5082322;28;19973;-88
2022/02/18 02:24:53;;;;;;;;;;;;;;;;;;5082240;28;20007;-88
2022/02/18 02:27:19;;;;;;;;;;;;;;;;;;5082632;28;19924;-88
2022/02/18 02:29:46;;;;;;;;;;;;;;;;;;5082365;28;19924;-89
2022/02/18 02:32:12;;;;;;;;;;;;;;;;;;5082346;28;20373;-89
2022/02/18 02:34:38;;;;;;;;;;;;;;;;;;5082393;28;20430;-89
2022/02/18 02:37:04;;;;;;;;;;;;;;;;;;5082563;28;20383;-88
2022/02/18 02:39:33;;;;;;;;;;;;;;;;;;5082078;28;19924;-89
2022/02/18 02:41:59;;;;;;;;;;;;;;;;;;5082547;28;19928;-88
2022/02/18 02:44:26;;;;;;;;;;;;;;;;;;5082336;28;19931;-88
2022/02/18 02:46:52;;;;;;;;;;;;;;;;;;5081973;28;19946;-88
2022/02/18 02:49:18;;;;;;;;;;;;;;;;;;5081786;28;19924;-88
2022/02/18 02:51:44;;;;;;;;;;;;;;;;;;5080602;28;19982;-88
2022/02/18 02:54:11;;;;;;;;;;;;;;;;;;5080607;28;19942;-88
2022/02/18 02:56:37;;;;;;;;;;;;;;;;;;5081040;28;19924;-88
2022/02/18 02:59:03;;;;;;;;;;;;;;;;;;5080670;28;19951;-88
2022/02/18 03:01:29;;;;;;;;;;;;;;;;;;5080943;28;19946;-88
2022/02/18 03:03:55;;;;;;;;;;;;;;;;;;5081026;28;19924;-88
2022/02/18 03:06:22;;;;;;;;;;;;;;;;;;5082282;28;19950;-88
2022/02/18 03:08:48;;;;;;;;;;;;;;;;;;5082624;28;19924;-88
2022/02/18 03:11:17;;;;;;;;;;;;;;;;;;5080566;28;19973;-89
2022/02/18 03:13:43;;;;;;;;;;;;;;;;;;5080496;28;19924;-89
2022/02/18 03:16:09;;;;;;;;;;;;;;;;;;5081234;28;19959;-88
2022/02/18 03:18:36;;;;;;;;;;;;;;;;;;5081605;28;19966;-88
2022/02/18 03:21:02;;;;;;;;;;;;;;;;;;5081943;28;19974;-88
2022/02/18 03:23:29;;;;;;;;;;;;;;;;;;5082204;28;19924;-88
2022/02/18 03:25:55;;;;;;;;;;;;;;;;;;5081753;28;19991;-88
2022/02/18 03:28:21;;;;;;;;;;;;;;;;;;5081600;28;19942;-89
2022/02/18 03:30:47;;;;;;;;;;;;;;;;;;5081499;28;19920;-89
2022/02/18 03:33:13;;;;;;;;;;;;;;;;;;5081527;28;19924;-88
2022/02/18 03:35:40;;;;;;;;;;;;;;;;;;5080809;28;19947;-89
2022/02/18 03:38:06;;;;;;;;;;;;;;;;;;5080497;28;19978;-90
2022/02/18 03:40:32;;;;;;;;;;;;;;;;;;5081244;28;19928;-88
2022/02/18 03:42:58;;;;;;;;;;;;;;;;;;5081942;28;19974;-89
2022/02/18 03:45:25;;;;;;;;;;;;;;;;;;5081577;28;19966;-89
2022/02/18 03:47:51;;;;;;;;;;;;;;;;;;5081164;28;19924;-89
2022/02/18 03:50:17;;;;;;;;;;;;;;;;;;5081421;28;19972;-89
2022/02/18 03:52:44;;;;;;;;;;;;;;;;;;5081613;28;19974;-88
2022/02/18 03:55:10;;;;;;;;;;;;;;;;;;5080928;28;19924;-89
2022/02/18 03:57:36;;;;;;;;;;;;;;;;;;5081517;28;19924;-89
2022/02/18 04:00:02;;;;;;;;;;;;;;;;;;5081978;28;19947;-89
2022/02/18 04:02:28;;;;;;;;;;;;;;;;;;5082046;28;19920;-88
2022/02/18 04:04:55;;;;;;;;;;;;;;;;;;5081188;28;19925;-89
2022/02/18 04:07:21;;;;;;;;;;;;;;;;;;5082177;28;19943;-89
2022/02/18 04:09:47;;;;;;;;;;;;;;;;;;5084176;28;19928;-89
2022/02/18 04:12:13;;;;;;;;;;;;;;;;;;5085384;28;19936;-89
2022/02/18 04:14:40;;;;;;;;;;;;;;;;;;5083633;28;19924;-89
2022/02/18 04:17:06;;;;;;;;;;;;;;;;;;5063732;28;19924;-89
2022/02/18 04:19:32;;;;;;;;;;;;;;;;;;5064383;28;19921;-89
2022/02/18 04:22:02;;;;;;;;;;;;;;;;;;5064738;28;19921;-89
2022/02/18 04:24:28;;;;;;;;;;;;;;;;;;5064906;28;19927;-89
2022/02/18 04:26:55;;;;;;;;;;;;;;;;;;5064856;28;19925;-89
2022/02/18 04:29:21;;;;;;;;;;;;;;;;;;5065156;28;19955;-89
2022/02/18 04:31:47;;;;;;;;;;;;;;;;;;5064663;28;19924;-88
2022/02/18 04:34:13;;;;;;;;;;;;;;;;;;5064700;28;19925;-88
2022/02/18 04:36:39;;;;;;;;;;;;;;;;;;5064421;28;20015;-89
2022/02/18 04:39:06;;;;;;;;;;;;;;;;;;5064384;28;20010;-88
2022/02/18 04:41:33;;;;;;;;;;;;;;;;;;5065028;28;19920;-88
2022/02/18 04:43:59;;;;;;;;;;;;;;;;;;5065059;28;19925;-89
2022/02/18 04:46:25;;;;;;;;;;;;;;;;;;5062506;28;19924;-90
2022/02/18 04:48:52;;;;;;;;;;;;;;;;;;5062936;28;19921;-89
2022/02/18 04:51:18;;;;;;;;;;;;;;;;;;5064725;28;19920;-90
2022/02/18 04:53:44;;;;;;;;;;;;;;;;;;5065068;28;19925;-89
2022/02/18 04:56:10;;;;;;;;;;;;;;;;;;5064589;28;19947;-89
2022/02/18 04:58:37;;;;;;;;;;;;;;;;;;5064168;28;19925;-90
2022/02/18 05:01:05;;;;;;;115.18;57.55;;;;;;;;;;5062914;28;20466;-94
2022/02/18 05:03:31;;;;;;;108.20;52.47;;;;;;;;;;5063732;28;20932;-93
2022/02/18 05:05:58;;;;;;;104.45;50.28;;;;;;;;;;5063123;28;20196;-90
2022/02/18 05:08:24;;;;;;;104.05;50.40;;;;;;;;;;5063242;28;20204;-91
2022/02/18 05:10:51;;;;;;;116.00;55.10;;;;;;;;;;5062603;28;20220;-91
2022/02/18 05:13:18;;;;;;;115.80;51.60;;;;;;;;;;5064431;28;20197;-96
2022/02/18 05:15:44;;;;;;;123.05;53.72;;;;;;;;;;5069667;28;20207;-93
2022/02/18 05:18:12;;;;;;;125.13;55.45;;;;;;;;;;5082773;28;20254;-96
2022/02/18 05:20:38;;;;;;;120.82;53.30;;;;;;;;;;5082486;28;20208;-94
2022/02/18 05:23:05;;;;;;;119.88;51.67;;;;;;;;;;5083879;28;20211;-96
2022/02/18 05:25:32;;;;;;;130.65;54.50;;;;;;;;;;5083304;28;20196;-92
2022/02/18 05:27:58;;;;;;;128.00;54.45;;;;;;;;;;5083779;28;20290;-93
2022/02/18 05:30:25;;;;;;;135.35;53.80;;;;;;;;;;5083216;28;20199;-93
2022/02/18 05:32:51;;;;;;;136.68;54.70;;;;;;;;;;5082127;28;20203;-91
2022/02/18 05:35:19;;;;;;;137.60;54.38;;;;;;;;;;5082317;28;20203;-94
2022/02/18 05:37:46;;;;;;;136.52;53.83;;;;;;;;;;5082589;28;20230;-93
2022/02/18 05:40:13;;;;;;;148.93;55.45;;;;;;;;;;5082988;28;20200;-95
2022/02/18 05:42:39;;;;;;;145.35;54.85;;;;;;;;;;5082990;28;20207;-92
2022/02/18 05:45:07;;;;;;;156.38;55.47;;;;;;;;;;5083656;28;20261;-91
2022/02/18 05:47:34;;;;;;;108.53;50.83;;;;;;;;;;5082887;28;20253;-94
2022/02/18 05:50:00;;;;;;;126.32;54.30;;;;;;;;;;5082852;28;20199;-89
2022/02/18 05:52:28;;;;;;;126.03;53.60;;;;;;;;;;5082571;28;20277;-91
2022/02/18 05:54:54;;;;;;;125.95;53.85;;;;;;;;;;5082577;28;20203;-93
2022/02/18 05:57:21;;;;;;;126.00;54.47;;;;;;;;;;5081570;28;20223;-91
2022/02/18 05:59:47;;;;;;;125.97;53.72;;;;;;;;;;5081647;28;20897;-94
2022/02/18 06:02:14;;;;;;;130.93;56.00;;;;;;;;;;5081884;28;20203;-91
2022/02/18 06:04:40;;;;;;;123.20;53.08;;;;;;;;;;5082701;28;20253;-92
2022/02/18 06:07:07;;;;;;;135.40;56.60;;;;;;;;;;5081614;28;20203;-92
2022/02/18 06:09:35;;;;;;;136.73;53.92;;;;;;;;;;5082365;28;20699;-92
2022/02/18 06:12:01;;;;;;;122.63;53.92;;;;;;;;;;5082187;28;20195;-89
2022/02/18 06:14:27;;;;;;;126.07;54.05;;;;;;;;;;5082564;28;20199;-90
2022/02/18 06:16:54;;;;;;;129.75;53.55;;;;;;;;;;5080794;28;20199;-90
2022/02/18 06:19:20;;;;;;;128.73;56.93;;;;;;;;;;5081016;28;20257;-89
2022/02/18 06:21:47;;;;;;;121.95;53.03;;;;;;;;;;5081443;28;20472;-90
2022/02/18 06:24:13;;;;;;;124.97;53.95;;;;;;;;;;5082392;28;20224;-90
2022/02/18 06:26:41;;;;;;;130.15;54.78;;;;;;;;;;5081495;28;20204;-89
2022/02/18 06:29:08;;;;;;;130.53;55.47;;;;;;;;;;5081867;28;20211;-91
2022/02/18 06:31:34;;;;;;;130.77;56.33;;;;;;;;;;5079890;28;20446;-88
2022/02/18 06:34:01;;;;;;;128.33;55.00;;;;;;;;;;5080585;28;20263;-89
2022/02/18 06:36:27;;;;;;;132.98;55.75;;;;;;;;;;5080898;28;20472;-89
2022/02/18 06:38:53;;;;;;;130.38;55.42;;;;;;;;;;5081197;28;20227;-89
2022/02/18 06:41:21;;;;;;;131.45;56.47;;;;;;;;;;5081501;28;20188;-88
2022/02/18 06:43:49;;;;;;;133.30;56.13;;;;;;;;;;5081915;28;20203;-88
2022/02/18 06:46:16;;;;;;;136.52;56.75;;;;;;;;;;5081608;28;20891;-89
2022/02/18 06:48:42;;;;;;;154.98;60.33;;;;;;;;;;5081555;28;20277;-88
2022/02/18 06:51:09;;;;;;;145.32;60.22;;;;;;;;;;5080861;28;20191;-88
2022/02/18 06:53:35;;;;;;;138.13;56.83;;;;;;;;;;5081177;28;20229;-88
2022/02/18 06:56:02;;;;;;;139.30;58.67;;;;;;;;;;5080044;28;20617;-88
2022/02/18 06:58:28;;;;;;;137.60;57.67;;;;;;;;;;5079944;28;20233;-88
2022/02/18 07:00:56;;;;;;;135.77;60.10;;;;;;;;;;5080597;28;20455;-89
2022/02/18 07:03:23;;;;;;;138.43;59.25;;;;;;;;;;5081579;28;20203;-88
2022/02/18 07:05:49;;;;;;;138.50;59.10;;;;;;;;;;5077629;28;20207;-89
2022/02/18 07:08:16;;;;;;;130.97;57.33;;;;;;;;;;5079971;28;20553;-88
2022/02/18 07:10:43;;;;;;;133.20;56.83;;;;;;;;;;5073545;28;20443;-89
2022/02/18 07:13:09;;;;;;;131.87;58.43;;;;;;;;;;5080130;28;20458;-89
2022/02/18 07:15:36;;;;;;;130.20;57.13;;;;;;;;;;5080871;28;20449;-88
2022/02/18 07:18:04;;;;;;;128.50;57.97;;;;;;;;;;5080997;28;20562;-89
2022/02/18 07:20:30;;;;;;;126.17;55.73;;;;;;;;;;5081134;28;20507;-89
2022/02/18 07:22:57;;;;;;;130.87;57.40;;;;;;;;;;5081039;28;20445;-88
2022/02/18 07:25:24;;;;;;;128.70;59.20;;;;;;;;;;5080660;28;20453;-88
2022/02/18 07:27:50;;;;;;;132.30;59.80;;;;;;;;;;5061841;28;20876;-88
2022/02/18 07:30:17;;;;;;;134.50;60.27;;;;;;;;;;5053174;28;20540;-88
2022/02/18 07:32:44;;;;;;;132.93;60.30;;;;;;;;;;5073150;28;20446;-88
2022/02/18 07:35:12;;;;;;;130.15;57.50;;;;;;;;;;5080723;28;20469;-88
2022/02/18 07:37:38;;;;;;;130.43;58.87;;;;;;;;;;5081999;28;21077;-88
2022/02/18 07:40:05;;;;;;;133.30;61.73;;;;;;;;;;5075855;28;20566;-88
2022/02/18 07:42:32;;;;;;;131.37;60.00;;;;;;;;;;5070792;28;20447;-88
2022/02/18 07:44:58;;;;;;;128.10;59.50;;;;;;;;;;5082777;28;20438;-88
2022/02/18 07:47:25;;;;;;;133.40;60.70;;;;;;;;;;5083056;28;21170;-88
2022/02/18 07:49:51;;;;;;;132.40;59.70;;;;;;;;;;5082415;28;21000;-88
2022/02/18 07:52:20;;;;;;;132.27;62.40;;;;;;;;;;5079295;28;20449;-88
2022/02/18 07:54:47;;;;;;;127.53;59.23;;;;;;;;;;5082642;28;20517;-88
2022/02/18 07:57:13;;;;;;;130.90;58.00;;;;;;;;;;5073139;28;20473;-88
2022/02/18 07:59:40;;;;;;;132.20;59.33;;;;;;;;;;5062840;28;20498;-88
2022/02/18 08:02:07;;;;;;;136.90;61.33;;;;;;;;;;5062178;28;20450;-88
2022/02/18 08:04:33;;;;;;;137.63;61.47;;;;;;;;;;5063865;28;21107;-88
2022/02/18 08:07:00;;;;;;;140.00;62.43;;;;;;;;;;5063270;28;20446;-88
2022/02/18 08:09:28;;;;;;;131.37;58.30;;;;;;;;;;5062822;28;20453;-87
2022/02/18 08:11:54;;;;;;;139.33;62.17;;;;;;;;;;5055244;28;20518;-90
2022/02/18 08:14:20;;;;;;;138.47;61.37;;;;;;;;;;5058308;28;20451;-89
2022/02/18 08:16:47;;;;;;;139.47;57.50;;;;;;;;;;5063078;28;20528;-88
2022/02/18 08:19:13;;;;;;;136.50;57.50;;;;;;;;;;5064347;28;20494;-89
2022/02/18 08:21:40;;;;;;;133.47;57.47;;;;;;;;;;5063985;28;20454;-88
2022/02/18 08:24:06;;;;;;;137.57;58.90;;;;;;;;;;5061561;28;20454;-88
2022/02/18 08:26:34;;;;;;;138.60;57.13;;;;;;;;;;5062631;28;20918;-89
2022/02/18 08:29:01;;;;;;;138.17;59.10;;;;;;;;;;5065677;28;20430;-88
2022/02/18 08:31:28;;;;;;;136.57;59.27;;;;;;;;;;5071501;28;20461;-88
2022/02/18 08:33:54;;;;;;;133.90;56.50;;;;;;;;;;5071636;28;20446;-88
2022/02/18 08:36:21;;;;;;;144.10;58.90;;;;;;;;;;5072679;28;20439;-89
2022/02/18 08:38:47;;;;;;;107.50;53.80;;;;;;;;;;5071080;28;20494;-89
2022/02/18 08:41:14;;;;;;;107.97;53.63;;;;;;;;;;5072160;28;20434;-88
2022/02/18 08:43:42;;;;;;;104.50;52.37;;;;;;;;;;5074122;28;20496;-92
2022/02/18 08:46:08;;;;;;;100.60;51.90;;;;;;;;;;5072403;28;20443;-92
2022/02/18 08:48:35;;;;;;;104.10;51.53;;;;;;;;;;5068129;28;20536;-91
2022/02/18 08:51:01;;;;;;;101.60;51.67;;;;;;;;;;5071861;28;20437;-90
2022/02/18 08:53:28;;;;;;;103.20;50.63;;;;;;;;;;5070390;28;20558;-95
2022/02/18 08:55:54;;;;;;;107.83;52.40;;;;;;;;;;5079968;28;20472;-92
2022/02/18 08:58:21;;;;;;;105.40;52.57;;;;;;;;;;5078980;28;20481;-89
2022/02/18 09:00:50;;;;;;;109.37;52.13;;;;;;;;;;5078622;28;20472;-93
2022/02/18 09:03:16;;;;;;;102.17;51.67;;;;;;;;;;5083147;28;20466;-95
2022/02/18 09:05:43;;;;;;;101.87;51.23;;;;;;;;;;5075661;28;20441;-90
2022/02/18 09:08:09;;;;;;;103.17;50.83;;;;;;;;;;5070759;28;20472;-90
2022/02/18 09:10:36;;;;;;;102.00;52.30;;;;;;;;;;5071270;28;20472;-90
2022/02/18 09:13:02;;;;;;;101.30;52.03;;;;;;;;;;5069832;28;20519;-91
2022/02/18 09:15:29;;;;;;;102.50;51.23;;;;;;;;;;5065660;28;20446;-90
2022/02/18 09:17:57;;;;;;;102.60;51.90;;;;;;;;;;5073521;28;20476;-90
2022/02/18 09:20:23;;;;;;;101.37;51.37;;;;;;;;;;5071765;28;20489;-94
2022/02/18 09:22:50;;;;;;;99.70;49.60;;;;;;;;;;5079936;28;20491;-93
2022/02/18 09:25:16;;;;;;;102.57;52.77;;;;;;;;;;5071151;28;20858;-91
2022/02/18 09:27:43;;;;;;;102.83;51.63;;;;;;;;;;5075274;28;20499;-92
2022/02/18 09:30:12;;;;;;;103.87;52.17;;;;;;;;;;5071866;28;20478;-91
2022/02/18 09:32:39;;;;;;;101.70;51.60;;;;;;;;;;5070327;28;20459;-92
2022/02/18 09:35:07;;;;;;;101.80;51.07;;;;;;;;;;5071940;28;20505;-92
2022/02/18 09:37:37;;;;;;;103.43;51.70;;;;;;;;;;5075278;28;20449;-92
2022/02/18 09:40:04;;;;;;;102.97;52.70;;;;;;;;;;5071047;28;20902;-92
2022/02/18 09:42:31;;;;;;;106.37;54.37;;;;;;;;;;5071047;28;20437;-94
2022/02/18 09:44:57;;;;;;;104.50;53.47;;;;;;;;;;5072024;28;20499;-95
2022/02/18 09:47:24;;;;;;;103.80;53.37;;;;;;;;;;5072303;28;20473;-92
2022/02/18 09:49:53;;;;;;;103.40;52.83;;;;;;;;;;5069976;28;20445;-91
2022/02/18 09:52:21;;;;;;;102.87;51.67;;;;;;;;;;5072629;28;20434;-93
2022/02/18 09:54:48;;;;;;;102.10;52.07;;;;;;;;;;5071856;28;20495;-91
2022/02/18 09:57:16;;;;;;;106.57;52.90;;;;;;;;;;5070890;28;20505;-92
2022/02/18 09:59:43;;;;;;;101.30;50.90;;;;;;;;;;5070675;28;20514;-91
2022/02/18 10:02:11;;;;;;;105.63;52.50;;;;;;;;;;5071580;28;20450;-92
2022/02/18 10:04:37;;;;;;;104.90;54.00;;;;;;;;;;5073388;28;20450;-91
2022/02/18 10:07:06;;;;;;;104.20;53.20;;;;;;;;;;5070360;28;20500;-91
2022/02/18 10:09:41;;;;;;;104.90;51.80;;;;;;;;;;5078712;28;20442;-92
2022/02/18 10:12:09;;;;;;;101.77;52.43;;;;;;;;;;5082205;28;20609;-91
2022/02/18 10:14:55;;;;;;;101.67;52.43;;;;;;;;;;5082368;28;20505;-93
2022/02/18 10:17:22;;;;;;;102.97;52.70;;;;;;;;;;5078752;28;20481;-93
2022/02/18 10:19:52;;;;;;;102.50;52.60;;;;;;;;;;5062527;28;20565;-93
2022/02/18 10:22:25;;;;;;;109.20;54.27;;;;;;;;;;5061759;28;20450;-90
2022/02/18 10:24:53;;;;;;;110.27;54.40;;;;;;;;;;5062298;28;20477;-93
2022/02/18 10:27:21;;;;;;;110.20;54.43;;;;;;;;;;5062473;28;20470;-95
2022/02/18 10:29:55;;;;;;;112.47;54.00;;;;;;;;;;5062302;28;20447;-91
2022/02/18 10:32:22;;;;;;;110.50;54.20;;;;;;;;;;5064954;28;20445;-92
2022/02/18 10:34:52;;;;;;;120.90;55.90;;;;;;;;;;5082014;28;20442;-91
2022/02/18 10:37:20;;;;;;;120.13;56.17;;;;;;;;;;5080997;28;20532;-94
2022/02/18 10:39:46;;;;;;;118.97;56.87;;;;;;;;;;5070113;28;20544;-91
2022/02/18 10:42:15;;;;;;;118.17;56.07;;;;;;;;;;5061595;28;21017;-91
2022/02/18 10:44:42;;;;;;;121.23;57.13;;;;;;;;;;5061877;28;20451;-92
2022/02/18 10:47:19;;;;;;;117.17;57.17;;;;;;;;;;5060265;28;20482;-91
2022/02/18 10:49:46;;;;;;;119.43;56.40;;;;;;;;;;5060277;28;20450;-92
2022/02/18 10:52:13;;;;;;;133.57;58.23;;;;;;;;;;5060862;28;20533;-91
2022/02/18 10:54:40;;;;;;;143.47;60.87;;;;;;;;;;5060365;28;20446;-92
2022/02/18 10:57:14;;;;;;;139.70;61.43;;;;;;;;;;5059433;28;20447;-93
2022/02/18 10:59:41;;;;;;;135.30;58.67;;;;;;;;;;5061274;28;20502;-93
2022/02/18 11:02:09;;;;;;;142.07;59.30;;;;;;;;;;5061216;28;20446;-94
2022/02/18 11:04:36;;;;;;;141.50;59.53;;;;;;;;;;5080882;28;20992;-91
2022/02/18 11:07:09;;;;;;;150.87;62.60;;;;;;;;;;5081056;28;20442;-91
2022/02/18 11:09:36;;;;;;;107.97;53.23;;;;;;;;;;5080716;28;20505;-92
2022/02/18 11:12:06;;;;;;;109.20;55.00;;;;;;;;;;5081430;28;20532;-93
2022/02/18 11:14:34;;;;;;;109.07;53.93;;;;;;;;;;5081376;28;20449;-94
2022/02/18 11:17:01;;;;;;;109.40;56.17;;;;;;;;;;5079993;28;20479;-94
2022/02/18 11:19:28;;;;;;;112.00;55.67;;;;;;;;;;5081569;28;20489;-90
2022/02/18 11:21:54;;;;;;;110.57;54.70;;;;;;;;;;5085340;28;20499;-92
2022/02/18 11:24:21;;;;;;;109.27;54.77;;;;;;;;;;5085606;28;20441;-92
2022/02/18 11:26:48;;;;;;;110.60;55.07;;;;;;;;;;5085052;28;20441;-92
2022/02/18 11:29:15;;;;;;;110.43;55.50;;;;;;;;;;5084615;28;20457;-93
2022/02/18 11:31:45;;;;;;;115.07;55.37;;;;;;;;;;5085485;28;20449;-96
2022/02/18 11:34:24;;;;;;;117.97;56.70;;;;;;;;;;5084757;28;20493;-93
2022/02/18 11:37:05;;;;;;;112.50;55.63;;;;;;;;;;5085182;28;20487;-95
2022/02/18 11:39:41;;;;;;;130.63;58.03;;;;;;;;;;5071634;28;20485;-91
2022/02/18 11:42:14;;;;;;;113.97;56.00;;;;;;;;;;5085416;28;20475;-91
2022/02/18 11:44:40;;;;;;;115.77;57.30;;;;;;;;;;5084616;28;20437;-92
2022/02/18 11:47:15;;;;;;;116.07;57.17;;;;;;;;;;5083469;28;21040;-91
2022/02/18 11:49:42;;;;;;;116.53;57.72;;;;;;;;;;5083028;28;20436;-94
2022/02/18 11:52:10;;;;;;;115.27;56.33;;;;;;;;;;5085676;28;20238;-91
2022/02/18 11:54:37;;;;;;;107.20;54.97;;;;;;;;;;5086828;28;21009;-95
2022/02/18 11:57:04;;;;;;;111.20;57.07;;;;;;;;;;5084967;28;20473;-92
2022/02/18 11:59:44;;;;;;;114.50;55.93;;;;;;;;;;5084365;28;20507;-96
2022/02/18 12:02:11;;;;;;;115.03;57.37;;;;;;;;;;5084785;28;20461;-92
2022/02/18 12:04:40;;;;;;;114.87;56.80;;;;;;;;;;5084026;28;20529;-92
2022/02/18 12:07:25;;;;;;;115.30;57.60;;;;;;;;;;5084625;28;20471;-89
2022/02/18 12:10:02;;;;;;;169.27;65.80;;;;;;;;;;5084462;28;20475;-91
2022/02/18 12:12:29;;;;;;;133.27;60.37;;;;;;;;;;5084131;28;20487;-91
2022/02/18 12:14:56;;;;;;;136.30;60.07;;;;;;;;;;5083962;28;20523;-92
2022/02/18 12:17:23;;;;;;;116.20;57.67;;;;;;;;;;5084289;28;20457;-96
2022/02/18 12:19:51;;;;;;;158.67;63.50;;;;;;;;;;5084491;28;20518;-92
2022/02/18 12:22:31;;;;;;;134.30;60.53;;;;;;;;;;5084666;28;20506;-91
2022/02/18 12:24:57;;;;;;;133.70;59.93;;;;;;;;;;5084407;28;20530;-91
2022/02/18 12:27:32;;;;;;;150.80;61.80;;;;;;;;;;5083458;28;20520;-91
2022/02/18 12:30:02;;;;;;;160.40;62.33;;;;;;;;;;5083108;28;20479;-96
2022/02/18 12:32:28;;;;;;;138.30;59.57;;;;;;;;;;5084327;28;20533;-92
2022/02/18 12:35:04;;;;;;;179.00;64.90;;;;;;;;;;5084242;28;20449;-92
2022/02/18 12:37:31;;;;;;;197.63;68.47;;;;;;;;;;5083239;28;20449;-90
2022/02/18 12:40:00;;;;;;;240.97;73.90;;;;;;;;;;5082763;28;20489;-93
2022/02/18 12:42:28;;;;;;;223.70;74.23;;;;;;;;;;5083149;28;20458;-91
2022/02/18 12:44:55;;;;;;;199.23;69.70;;;;;;;;;;5083008;28;20507;-90
2022/02/18 12:47:22;;;;;;;173.13;65.47;;;;;;;;;;5082789;28;21152;-93
2022/02/18 12:49:49;;;;;;;178.40;66.70;;;;;;;;;;5082843;28;20454;-92
2022/02/18 12:52:17;;;;;;;215.50;71.50;;;;;;;;;;5084150;28;20472;-91
2022/02/18 12:54:48;;;;;;;237.70;72.30;;;;;;;;;;5083732;28;20489;-93
2022/02/18 12:57:15;;;;;;;284.27;81.17;;;;;;;;;;5082398;28;20475;-91
2022/02/18 12:59:45;;;;;;;401.50;127.97;;;;;;;;;;5081788;28;21086;-94
2022/02/18 13:02:12;;;;;;;167.77;64.50;;;;;;;;;;5084432;28;20536;-92
2022/02/18 13:04:38;;;;;;;161.77;62.60;;;;;;;;;;5084029;28;20973;-91
2022/02/18 13:07:05;;;;;;;425.47;124.17;;;;;;;;;;5083780;28;20481;-94
2022/02/18 13:09:35;;;;;;;323.93;102.73;;;;;;;;;;5084195;28;20853;-91
2022/02/18 13:12:02;;;;;;;155.17;63.20;;;;;;;;;;5070406;28;20469;-88
2022/02/18 13:14:28;;;;;;;427.90;175.17;;;;;;;;;;5070692;28;20504;-92
2022/02/18 13:16:55;;;;;;;121.97;57.90;;;;;;;;;;5062203;28;20458;-93
2022/02/18 13:19:21;;;;;;;217.00;69.63;;;;;;;;;;5061562;28;20446;-90
2022/02/18 13:21:49;;;;;;;200.67;67.83;;;;;;;;;;5063369;28;20447;-90
2022/02/18 13:24:16;;;;;;;160.20;64.87;;;;;;;;;;5061771;28;20442;-94
2022/02/18 13:26:43;;;;;;;128.00;58.53;;;;;;;;;;5061770;28;20439;-93
2022/02/18 13:29:10;;;;;;;138.00;59.70;;;;;;;;;;5062245;28;20446;-90
2022/02/18 13:31:37;;;;;;;133.53;58.20;;;;;;;;;;5063145;28;20508;-91
2022/02/18 13:34:04;;;;;;;130.70;57.87;;;;;;;;;;5063587;28;20473;-92
2022/02/18 13:36:33;;;;;;;135.43;60.77;;;;;;;;;;5062273;28;20456;-91
2022/02/18 13:39:00;;;;;;;141.10;60.23;;;;;;;;;;5062731;28;20514;-93
2022/02/18 13:41:27;;;;;;;125.90;58.07;;;;;;;;;;5061140;28;20494;-92
2022/02/18 13:43:55;;;;;;;125.43;59.43;;;;;;;;;;5061353;28;20500;-91
2022/02/18 13:46:26;;;;;;;126.47;58.73;;;;;;;;;;5062752;28;20450;-90
2022/02/18 13:48:53;;;;;;;185.13;65.53;;;;;;;;;;5063176;28;20443;-91
2022/02/18 13:51:21;;;;;;;128.60;57.30;;;;;;;;;;5063100;28;20471;-91
2022/02/18 13:53:48;;;;;;;125.47;58.80;;;;;;;;;;5062994;28;20511;-93
2022/02/18 13:56:21;;;;;;;229.60;70.70;;;;;;;;;;5061647;28;20480;-91
2022/02/18 13:58:48;;;;;;;213.70;71.70;;;;;;;;;;5059161;28;20522;-91
2022/02/18 14:01:16;;;;;;;184.77;64.10;;;;;;;;;;5058463;28;20493;-89
2022/02/18 14:03:52;;;;;;;172.27;62.53;;;;;;;;;;5062024;28;20447;-91
2022/02/18 14:06:19;;;;;;;174.30;64.67;;;;;;;;;;5062303;28;20442;-89
2022/02/18 14:08:55;;;;;;;159.90;63.10;;;;;;;;;;5062479;28;20994;-92
2022/02/18 14:11:21;;;;;;;182.60;69.00;;;;;;;;;;5062011;28;20478;-91
2022/02/18 14:13:48;;;;;;;276.60;80.93;;;;;;;;;;5062186;28;20485;-90
2022/02/18 14:16:16;;;;;;;251.77;77.77;;;;;;;;;;5062272;28;20485;-93
2022/02/18 14:18:53;;;;;;;190.32;68.82;;;;;;;;;;5061731;28;20448;-93
2022/02/18 14:21:20;;;;;;;203.67;70.70;;;;;;;;;;5061846;28;20231;-89
2022/02/18 14:23:47;;;;;;;137.53;59.37;;;;;;;;;;5062245;28;20592;-93
2022/02/18 14:26:14;;;;;;;149.57;60.90;;;;;;;;;;5062279;28;20872;-94
2022/02/18 14:28:43;;;;;;;141.40;60.37;;;;;;;;;;5062305;28;20446;-91
2022/02/18 14:31:15;;;;;;;193.97;69.47;;;;;;;;;;5062401;28;20512;-93
2022/02/18 14:33:50;;;;;;;159.90;62.97;;;;;;;;;;5061982;28;20472;-92
2022/02/18 14:36:28;;;;;;;133.43;57.37;;;;;;;;;;5064519;28;20481;-90
2022/02/18 14:38:54;;;;;;;125.37;57.97;;;;;;;;;;5068264;28;20453;-91
2022/02/18 14:41:21;;;;;;;161.50;64.43;;;;;;;;;;5067285;28;20482;-93
2022/02/18 14:43:51;;;;;;;131.73;58.57;;;;;;;;;;5067371;28;20473;-92
2022/02/18 14:46:17;;;;;;;143.10;58.00;;;;;;;;;;5070364;28;20451;-89